Time;durP1;ratioP1;P1;durP2;ratioP2;P2;SDS_P1;SDS_P2;PMS_P1;PMS_P2;Temp;Humidity;BMP_temperature;BMP_pressure;BME280_temperature;BME280_humidity;BME280_pressure;Samples;Min_cycle;Max_cycle;Signal;HPM_P1;HPM_P2
2022/07/20 00:00:59;;;;;;;2.90;2.60;;;21.20;88.10;;;;;;5073136;28;20812;-85
2022/07/20 00:03:24;;;;;;;1.90;1.80;;;21.20;88.30;;;;;;5072435;28;20179;-84
2022/07/20 00:05:50;;;;;;;4.63;2.70;;;21.10;88.60;;;;;;5072071;28;20190;-85
2022/07/20 00:11:19;;;;;;;6.20;1.97;;;21.10;88.90;;;;;;5072335;28;20241;-85
2022/07/20 00:11:19;;;;;;;1.80;1.70;;;21.10;88.80;;;;;;5073304;28;20171;-84
2022/07/20 00:13:49;;;;;;;2.47;2.27;;;21.00;89.00;;;;;;5071695;28;20540;-84
2022/07/20 00:16:15;;;;;;;2.67;1.70;;;21.00;89.20;;;;;;5071768;28;20449;-84
2022/07/20 00:18:40;;;;;;;3.97;2.30;;;21.00;89.40;;;;;;5072012;28;20488;-85
2022/07/20 00:21:06;;;;;;;1.83;1.80;;;21.00;89.20;;;;;;5072007;28;20646;-85
2022/07/20 00:23:31;;;;;;;1.83;1.73;;;21.00;89.20;;;;;;5072598;28;20232;-85
2022/07/20 00:25:57;;;;;;;11.40;3.00;;;21.00;89.40;;;;;;5071612;28;20317;-85
2022/07/20 00:28:22;;;;;;;3.23;2.17;;;20.90;89.50;;;;;;5071310;28;20199;-84
2022/07/20 00:30:48;;;;;;;6.90;2.13;;;20.90;89.80;;;;;;5066446;28;20565;-85
2022/07/20 00:33:13;;;;;;;4.87;3.00;;;20.90;89.70;;;;;;5051154;28;20204;-85
2022/07/20 00:35:39;;;;;;;1.77;1.70;;;20.90;90.00;;;;;;5051347;28;20206;-85
2022/07/20 00:38:04;;;;;;;10.77;3.17;;;20.90;90.00;;;;;;5051272;28;20192;-84
2022/07/20 00:40:30;;;;;;;2.33;2.10;;;20.90;90.00;;;;;;5051441;28;20176;-85
2022/07/20 00:42:56;;;;;;;2.97;2.10;;;20.80;90.20;;;;;;5050991;28;20255;-84
2022/07/20 00:45:21;;;;;;;2.67;2.47;;;20.80;89.70;;;;;;5051380;28;20176;-85
2022/07/20 00:47:48;;;;;;;4.27;2.90;;;20.80;88.80;;;;;;5050228;28;20592;-84
2022/07/20 00:50:14;;;;;;;3.13;2.10;;;20.80;88.50;;;;;;5051198;28;20565;-84
2022/07/20 00:52:40;;;;;;;3.17;2.80;;;20.70;88.50;;;;;;5051267;28;20437;-83
2022/07/20 00:55:07;;;;;;;2.40;2.20;;;20.70;89.40;;;;;;5050562;28;20442;-84
2022/07/20 00:57:32;;;;;;;2.57;2.07;;;20.70;89.50;;;;;;5051007;28;20418;-85
2022/07/20 00:59:58;;;;;;;2.53;2.20;;;20.70;89.80;;;;;;5050127;28;20443;-85
2022/07/20 01:02:24;;;;;;;3.10;1.67;;;20.60;90.20;;;;;;5050899;28;20542;-85
2022/07/20 01:04:50;;;;;;;4.40;2.57;;;20.60;90.40;;;;;;5050608;28;20418;-84
2022/07/20 01:07:16;;;;;;;2.70;1.97;;;20.60;90.60;;;;;;5050614;28;20184;-85
2022/07/20 01:09:42;;;;;;;3.53;2.53;;;20.60;90.80;;;;;;5050792;28;20279;-85
2022/07/20 01:12:11;;;;;;;3.80;2.80;;;20.50;91.10;;;;;;5050681;28;20429;-85
2022/07/20 01:14:36;;;;;;;2.63;1.80;;;20.50;91.50;;;;;;5050780;28;20462;-84
2022/07/20 01:17:02;;;;;;;2.33;1.50;;;20.50;91.70;;;;;;5050698;28;20410;-84
2022/07/20 01:19:29;;;;;;;2.37;2.17;;;20.40;91.90;;;;;;5050684;28;20692;-85
2022/07/20 01:21:54;;;;;;;1.60;1.40;;;20.40;91.90;;;;;;5062517;28;20179;-85
2022/07/20 01:24:20;;;;;;;2.70;2.10;;;20.40;92.00;;;;;;5056853;28;20486;-85
2022/07/20 01:26:46;;;;;;;2.20;1.63;;;20.30;92.10;;;;;;5070655;28;20182;-83
2022/07/20 01:29:13;;;;;;;2.63;2.40;;;20.30;91.90;;;;;;5070010;28;20701;-85
2022/07/20 01:31:39;;;;;;;2.10;1.90;;;20.30;92.20;;;;;;5070932;28;20413;-84
2022/07/20 01:34:05;;;;;;;2.27;2.07;;;20.30;92.00;;;;;;5070123;28;20540;-84
2022/07/20 01:36:32;;;;;;;2.13;1.60;;;20.30;91.70;;;;;;5054063;28;20568;-85
2022/07/20 01:38:57;;;;;;;3.67;1.93;;;20.30;91.80;;;;;;5069921;28;20433;-86
2022/07/20 01:41:25;;;;;;;3.10;2.10;;;20.30;91.70;;;;;;5071402;28;20955;-85
2022/07/20 01:43:50;;;;;;;2.10;1.60;;;20.30;91.60;;;;;;5070544;28;20186;-85
2022/07/20 01:46:16;;;;;;;2.47;1.83;;;20.30;91.70;;;;;;5069998;28;20421;-84
2022/07/20 01:48:42;;;;;;;2.40;1.93;;;20.30;91.90;;;;;;5070156;28;20203;-84
2022/07/20 01:51:08;;;;;;;4.50;2.20;;;20.30;91.80;;;;;;5070137;28;20247;-85
2022/07/20 01:53:33;;;;;;;2.37;2.17;;;20.30;91.50;;;;;;5069180;28;20465;-83
2022/07/20 01:55:59;;;;;;;3.23;3.07;;;20.30;91.70;;;;;;5070134;28;20202;-85
2022/07/20 01:58:24;;;;;;;2.17;2.00;;;20.30;91.50;;;;;;5071440;28;20281;-85
2022/07/20 02:00:51;;;;;;;3.63;2.50;;;20.30;91.50;;;;;;5069902;28;20183;-84
2022/07/20 02:03:17;;;;;;;3.50;2.00;;;20.40;91.50;;;;;;5069878;28;20186;-85
2022/07/20 02:05:43;;;;;;;1.67;1.60;;;20.40;91.60;;;;;;5070291;28;20413;-85
2022/07/20 02:08:09;;;;;;;8.43;3.57;;;20.30;91.70;;;;;;5065754;28;20529;-83
2022/07/20 02:10:35;;;;;;;3.73;2.67;;;20.30;92.20;;;;;;5050335;28;20199;-85
2022/07/20 02:13:00;;;;;;;1.53;1.43;;;20.30;92.30;;;;;;5050540;28;20206;-85
2022/07/20 02:18:13;;;;;;;3.10;1.80;;;20.30;92.90;;;;;;5071378;28;20311;-85
2022/07/20 02:20:39;;;;;;;5.43;3.30;;;20.20;93.10;;;;;;5069597;28;20494;-85
2022/07/20 02:23:07;;;;;;;2.60;2.20;;;20.20;93.10;;;;;;5069332;28;20432;-84
2022/07/20 02:25:35;;;;;;;5.43;2.47;;;20.20;93.70;;;;;;5069656;28;20424;-85
2022/07/20 02:28:00;;;;;;;4.13;3.10;;;20.10;93.80;;;;;;5070513;28;20433;-85
2022/07/20 02:30:26;;;;;;;2.33;2.13;;;20.10;93.70;;;;;;5069573;28;20490;-83
2022/07/20 02:32:51;;;;;;;6.60;2.23;;;20.10;93.70;;;;;;5069932;28;20191;-85
2022/07/20 02:35:17;;;;;;;3.50;2.10;;;20.10;93.60;;;;;;5069401;28;20653;-85
2022/07/20 02:37:43;;;;;;;2.60;2.00;;;20.10;93.60;;;;;;5069698;28;20191;-85
2022/07/20 02:40:09;;;;;;;3.00;1.83;;;20.10;93.90;;;;;;5069924;28;20225;-85
2022/07/20 02:42:34;;;;;;;8.87;2.17;;;20.00;94.00;;;;;;5070033;28;20175;-85
2022/07/20 02:45:00;;;;;;;2.03;1.90;;;20.00;94.10;;;;;;5069394;28;20610;-85
2022/07/20 02:47:26;;;;;;;7.30;3.13;;;20.00;94.10;;;;;;5069535;28;20264;-85
2022/07/20 02:49:51;;;;;;;1.73;1.63;;;20.00;94.00;;;;;;5069367;28;20614;-85
2022/07/20 02:52:17;;;;;;;4.00;2.40;;;19.90;94.00;;;;;;5069494;28;20206;-85
2022/07/20 02:54:42;;;;;;;2.00;1.80;;;19.90;94.10;;;;;;5069762;28;20249;-84
2022/07/20 02:57:08;;;;;;;2.73;1.97;;;19.80;94.20;;;;;;5069305;28;20664;-85
2022/07/20 02:59:33;;;;;;;2.50;1.87;;;19.80;94.60;;;;;;5069552;28;20187;-84
2022/07/20 03:01:59;;;;;;;8.53;2.53;;;19.80;94.30;;;;;;5069426;28;20186;-85
2022/07/20 03:04:24;;;;;;;2.17;1.87;;;19.80;94.20;;;;;;5069891;28;20175;-85
2022/07/20 03:06:50;;;;;;;5.07;2.07;;;19.70;94.40;;;;;;5069610;28;20186;-84
2022/07/20 03:09:16;;;;;;;1.93;1.83;;;19.70;94.00;;;;;;5069021;28;20213;-85
2022/07/20 03:11:41;;;;;;;2.70;2.10;;;19.60;93.40;;;;;;5072229;28;20560;-85
2022/07/20 03:14:07;;;;;;;2.40;1.87;;;19.60;93.10;;;;;;5057404;28;20207;-85
2022/07/20 03:16:32;;;;;;;2.47;2.27;;;19.60;92.90;;;;;;5053159;28;20298;-85
2022/07/20 03:18:58;;;;;;;5.70;1.80;;;19.60;93.20;;;;;;5055087;28;20360;-85
2022/07/20 03:21:25;;;;;;;9.53;2.60;;;19.60;93.50;;;;;;5072704;28;20171;-84
2022/07/20 03:23:51;;;;;;;1.87;1.77;;;19.50;93.70;;;;;;5074914;28;20167;-86
2022/07/20 03:26:18;;;;;;;2.10;1.70;;;19.50;93.70;;;;;;5072272;28;20414;-85
2022/07/20 03:28:44;;;;;;;3.77;2.53;;;19.50;93.90;;;;;;5073016;28;20469;-85
2022/07/20 03:31:09;;;;;;;3.07;2.83;;;19.40;94.10;;;;;;5072386;28;20417;-85
2022/07/20 03:33:35;;;;;;;2.00;1.77;;;19.40;94.20;;;;;;5072303;28;20202;-85
2022/07/20 03:36:00;;;;;;;2.83;2.00;;;19.40;94.30;;;;;;5072324;28;20641;-83
2022/07/20 03:38:26;;;;;;;1.70;1.60;;;19.40;94.30;;;;;;5072108;28;20244;-83
2022/07/20 03:40:52;;;;;;;2.20;1.80;;;19.40;94.20;;;;;;5071801;28;20237;-84
2022/07/20 03:43:17;;;;;;;1.80;1.50;;;19.40;94.40;;;;;;5072567;28;20171;-86
2022/07/20 03:45:43;;;;;;;8.53;2.43;;;19.40;94.30;;;;;;5072579;28;20183;-83
2022/07/20 03:48:08;;;;;;;1.97;1.87;;;19.40;94.50;;;;;;5072315;28;20194;-85
2022/07/20 03:50:34;;;;;;;4.60;2.07;;;19.30;94.50;;;;;;5072088;28;20191;-85
2022/07/20 03:53:00;;;;;;;14.43;3.80;;;19.30;94.60;;;;;;5072485;28;20186;-84
2022/07/20 03:55:25;;;;;;;2.40;1.93;;;19.30;94.60;;;;;;5072538;28;20183;-85
2022/07/20 03:57:51;;;;;;;2.90;2.60;;;19.30;94.80;;;;;;5072689;28;20266;-83
2022/07/20 04:00:17;;;;;;;3.30;2.07;;;19.30;94.60;;;;;;5072623;28;20274;-84
2022/07/20 04:02:42;;;;;;;4.83;2.60;;;19.30;94.40;;;;;;5072797;28;20719;-85
2022/07/20 04:05:08;;;;;;;1.70;1.60;;;19.30;94.50;;;;;;5072531;28;20425;-84
2022/07/20 04:07:33;;;;;;;2.57;2.37;;;19.30;95.00;;;;;;5066298;28;20274;-85
2022/07/20 04:09:59;;;;;;;3.80;3.10;;;19.30;95.00;;;;;;5071989;28;20176;-85
2022/07/20 04:12:25;;;;;;;4.70;2.90;;;19.30;95.30;;;;;;5072508;28;20220;-84
2022/07/20 04:14:52;;;;;;;1.80;1.70;;;19.30;95.40;;;;;;5070543;28;20210;-84
2022/07/20 04:17:19;;;;;;;2.23;2.03;;;19.30;95.80;;;;;;5071052;28;20210;-85
2022/07/20 04:19:45;;;;;;;2.70;1.97;;;19.30;95.80;;;;;;5051489;28;20418;-85
2022/07/20 04:22:11;;;;;;;3.83;2.77;;;19.30;95.90;;;;;;5050660;28;20465;-84
2022/07/20 04:24:37;;;;;;;3.57;2.17;;;19.30;96.10;;;;;;5051626;28;20989;-85
2022/07/20 04:27:03;;;;;;;3.73;2.80;;;19.30;96.20;;;;;;5051579;28;20531;-85
2022/07/20 04:29:29;;;;;;;3.27;1.90;;;19.30;96.50;;;;;;5052657;28;20243;-85
2022/07/20 04:31:54;;;;;;;10.50;3.40;;;19.30;96.50;;;;;;5051871;28;20418;-85
2022/07/20 04:34:20;;;;;;;2.97;2.60;;;19.30;96.70;;;;;;5051402;28;20200;-85
2022/07/20 04:36:46;;;;;;;11.00;3.00;;;19.30;96.80;;;;;;5052175;28;20198;-85
2022/07/20 04:39:12;;;;;;;3.37;2.30;;;19.30;97.00;;;;;;5072697;28;20218;-85
2022/07/20 04:41:38;;;;;;;2.30;2.10;;;19.30;96.80;;;;;;5058099;28;20172;-85
2022/07/20 04:44:04;;;;;;;8.33;3.17;;;19.30;96.90;;;;;;5059196;28;20432;-85
2022/07/20 04:46:30;;;;;;;3.23;3.03;;;19.40;97.20;;;;;;5073029;28;20179;-84
2022/07/20 04:48:56;;;;;;;3.33;2.33;;;19.40;97.20;;;;;;5071705;28;20536;-84
2022/07/20 04:51:22;;;;;;;2.10;1.97;;;19.40;97.30;;;;;;5072953;28;20181;-83
2022/07/20 04:53:48;;;;;;;5.93;2.80;;;19.40;97.30;;;;;;5071308;28;20970;-85
2022/07/20 04:56:14;;;;;;;3.07;2.10;;;19.50;97.30;;;;;;5070664;28;20416;-84
2022/07/20 04:58:39;;;;;;;3.53;3.37;;;19.50;97.30;;;;;;5071142;28;20260;-84
2022/07/20 05:01:05;;;;;;;2.57;2.17;;;19.50;97.30;;;;;;5070687;28;20175;-85
2022/07/20 05:03:30;;;;;;;1.93;1.83;;;19.50;97.30;;;;;;5071250;28;20551;-85
2022/07/20 05:05:56;;;;;;;2.43;2.27;;;19.60;97.30;;;;;;5071652;28;20625;-85
2022/07/20 05:08:22;;;;;;;4.40;2.27;;;19.60;97.30;;;;;;5070847;28;20198;-85
2022/07/20 05:10:47;;;;;;;3.77;3.00;;;19.70;97.30;;;;;;5071015;28;20186;-85
2022/07/20 05:13:13;;;;;;;2.73;2.53;;;19.70;97.30;;;;;;5070867;28;20201;-84
2022/07/20 05:15:38;;;;;;;6.00;2.83;;;19.80;97.30;;;;;;5072201;28;20163;-85
2022/07/20 05:18:04;;;;;;;2.33;2.13;;;19.80;97.30;;;;;;5070884;28;20248;-84
2022/07/20 05:20:29;;;;;;;4.40;2.70;;;19.90;97.30;;;;;;5072265;28;20254;-85
2022/07/20 05:22:55;;;;;;;2.27;1.90;;;19.90;97.30;;;;;;5071055;28;20200;-84
2022/07/20 05:25:21;;;;;;;3.20;2.43;;;20.00;97.30;;;;;;5070407;28;20179;-85
2022/07/20 05:27:46;;;;;;;3.20;1.77;;;20.00;97.30;;;;;;5070536;28;20187;-85
2022/07/20 05:30:12;;;;;;;4.00;2.40;;;20.10;97.30;;;;;;5070556;28;20223;-84
2022/07/20 05:32:37;;;;;;;2.83;1.90;;;20.20;97.30;;;;;;5070747;28;20182;-85
2022/07/20 05:35:04;;;;;;;4.37;2.77;;;20.20;97.20;;;;;;5069357;28;20564;-84
2022/07/20 05:37:29;;;;;;;4.63;2.90;;;20.30;97.10;;;;;;5070465;28;20190;-84
2022/07/20 05:39:55;;;;;;;2.37;2.17;;;20.40;96.60;;;;;;5070589;28;20418;-84
2022/07/20 05:42:21;;;;;;;2.80;2.07;;;20.50;96.20;;;;;;5070287;28;20182;-84
2022/07/20 05:44:46;;;;;;;2.63;2.07;;;20.50;96.00;;;;;;5070358;28;20175;-85
2022/07/20 05:47:12;;;;;;;2.20;2.00;;;20.60;96.10;;;;;;5071635;28;20195;-84
2022/07/20 05:49:37;;;;;;;3.47;2.03;;;20.70;95.80;;;;;;5069898;28;20688;-85
2022/07/20 05:52:04;;;;;;;2.00;1.87;;;20.80;95.60;;;;;;5070838;28;20640;-83
2022/07/20 05:54:29;;;;;;;20.23;2.33;;;20.90;95.00;;;;;;5070485;28;20428;-84
2022/07/20 05:56:55;;;;;;;2.53;1.83;;;21.00;94.60;;;;;;5070062;28;20417;-85
2022/07/20 05:59:21;;;;;;;3.23;2.10;;;21.10;94.10;;;;;;5069927;28;20220;-84
2022/07/20 06:01:46;;;;;;;4.60;1.63;;;21.20;93.90;;;;;;5070332;28;20214;-84
2022/07/20 06:04:12;;;;;;;5.53;1.93;;;21.30;93.60;;;;;;5070035;28;20206;-84
2022/07/20 06:06:38;;;;;;;2.03;1.90;;;21.40;93.30;;;;;;5070237;28;20179;-84
2022/07/20 06:09:04;;;;;;;2.23;1.87;;;21.50;93.10;;;;;;5069533;28;20509;-85
2022/07/20 06:11:30;;;;;;;3.33;2.50;;;21.60;93.00;;;;;;5070088;28;20265;-82
2022/07/20 06:13:56;;;;;;;3.10;2.37;;;21.70;92.70;;;;;;5069751;28;20950;-84
2022/07/20 06:16:21;;;;;;;2.80;1.90;;;21.70;92.50;;;;;;5070066;28;20801;-84
2022/07/20 06:18:47;;;;;;;4.03;2.67;;;21.90;92.20;;;;;;5069870;28;20590;-85
2022/07/20 06:21:14;;;;;;;1.73;1.70;;;22.00;92.20;;;;;;5069968;28;20183;-83
2022/07/20 06:23:40;;;;;;;6.17;3.30;;;22.10;92.10;;;;;;5070804;28;20179;-84
2022/07/20 06:26:06;;;;;;;7.40;2.43;;;22.20;91.80;;;;;;5070080;28;20508;-84
2022/07/20 06:28:31;;;;;;;72.17;3.93;;;22.30;91.60;;;;;;5069991;28;20437;-84
2022/07/20 06:30:57;;;;;;;1.83;1.77;;;22.40;91.40;;;;;;5070125;28;20728;-85
2022/07/20 06:33:22;;;;;;;5.73;2.57;;;22.50;91.30;;;;;;5071838;28;20234;-85
2022/07/20 06:35:48;;;;;;;2.60;1.67;;;22.60;91.20;;;;;;5070503;28;20703;-85
2022/07/20 06:38:14;;;;;;;3.37;2.60;;;22.70;90.80;;;;;;5070564;28;20286;-84
2022/07/20 06:40:39;;;;;;;2.70;1.80;;;22.90;90.50;;;;;;5070027;28;20811;-85
2022/07/20 06:43:05;;;;;;;2.10;1.63;;;23.00;90.10;;;;;;5070142;28;20598;-85
2022/07/20 06:45:31;;;;;;;2.90;2.17;;;23.10;89.80;;;;;;5071921;28;20175;-85
2022/07/20 06:47:56;;;;;;;3.20;2.13;;;23.20;89.50;;;;;;5073207;28;20195;-85
2022/07/20 06:50:22;;;;;;;6.13;2.37;;;23.30;89.40;;;;;;5073486;28;20634;-85
2022/07/20 06:52:47;;;;;;;2.33;2.13;;;23.50;89.10;;;;;;5074434;28;20230;-85
2022/07/20 06:55:13;;;;;;;3.17;1.83;;;23.60;89.40;;;;;;5074781;28;20199;-85
2022/07/20 06:57:38;;;;;;;3.03;2.07;;;23.80;89.60;;;;;;5073178;28;20291;-85
2022/07/20 07:00:06;;;;;;;1.70;1.70;;;23.90;89.10;;;;;;5074442;28;20625;-85
2022/07/20 07:02:32;;;;;;;6.37;2.13;;;24.10;88.70;;;;;;5073095;28;20179;-85
2022/07/20 07:04:57;;;;;;;5.27;2.50;;;24.30;87.00;;;;;;5060485;28;20805;-85
2022/07/20 07:07:23;;;;;;;1.77;1.67;;;24.60;86.00;;;;;;5072951;28;20622;-85
2022/07/20 07:09:48;;;;;;;2.57;2.03;;;24.80;86.40;;;;;;5073098;28;20692;-85
2022/07/20 07:12:14;;;;;;;1.43;1.33;;;25.00;86.50;;;;;;5072862;28;20185;-85
2022/07/20 07:14:39;;;;;;;2.40;2.20;;;25.10;86.40;;;;;;5073063;28;20269;-85
2022/07/20 07:17:05;;;;;;;1.70;1.60;;;25.20;85.70;;;;;;5073064;28;20263;-85
2022/07/20 07:19:31;;;;;;;3.43;2.10;;;25.40;85.70;;;;;;5072493;28;20226;-85
2022/07/20 07:21:56;;;;;;;1.40;1.30;;;25.50;85.50;;;;;;5073180;28;20214;-85
2022/07/20 07:24:22;;;;;;;5.87;2.90;;;25.70;85.10;;;;;;5073228;28;20186;-85
2022/07/20 07:26:47;;;;;;;2.10;1.97;;;25.80;84.60;;;;;;5073084;28;20198;-85
2022/07/20 07:29:14;;;;;;;1.53;1.43;;;26.00;84.00;;;;;;5072616;28;20234;-84
2022/07/20 07:31:40;;;;;;;4.20;2.60;;;26.10;84.10;;;;;;5072656;28;20190;-84
2022/07/20 07:34:06;;;;;;;3.00;2.60;;;26.20;83.70;;;;;;5072445;28;20534;-85
2022/07/20 07:36:32;;;;;;;1.53;1.50;;;26.40;83.40;;;;;;5072476;28;20417;-84
2022/07/20 07:38:58;;;;;;;2.50;2.03;;;26.50;83.10;;;;;;5072030;28;20640;-83
2022/07/20 07:41:23;;;;;;;1.73;1.63;;;26.60;83.10;;;;;;5072290;28;20541;-85
2022/07/20 07:43:49;;;;;;;2.10;1.97;;;26.80;81.80;;;;;;5072276;28;20179;-84
2022/07/20 07:46:14;;;;;;;1.90;1.80;;;26.90;82.30;;;;;;5071834;28;20170;-84
2022/07/20 07:48:40;;;;;;;4.03;1.63;;;27.00;81.70;;;;;;5073730;28;20608;-83
2022/07/20 07:51:06;;;;;;;2.53;1.70;;;27.20;81.00;;;;;;5072088;28;20201;-84
2022/07/20 07:53:31;;;;;;;2.10;1.90;;;27.30;80.60;;;;;;5072088;28;20210;-84
2022/07/20 07:55:57;;;;;;;3.07;2.30;;;27.50;79.70;;;;;;5073057;28;20175;-84
2022/07/20 07:58:23;;;;;;;2.87;1.37;;;27.70;79.30;;;;;;5071806;28;20202;-84
2022/07/20 08:00:49;;;;;;;2.30;1.60;;;27.90;78.80;;;;;;5071840;28;20175;-84
2022/07/20 08:03:15;;;;;;;2.23;1.50;;;28.00;78.20;;;;;;5072097;28;20211;-84
2022/07/20 08:05:40;;;;;;;2.70;1.67;;;28.20;77.90;;;;;;5071801;28;20516;-84
2022/07/20 08:08:16;;;;;;;2.73;1.70;;;28.40;77.00;;;;;;5072179;28;20509;-84
2022/07/20 08:10:43;;;;;;;2.07;1.93;;;28.60;76.10;;;;;;5072312;28;20171;-84
2022/07/20 08:13:10;;;;;;;3.53;1.73;;;28.90;76.70;;;;;;5071780;28;20786;-84
2022/07/20 08:15:36;;;;;;;2.17;1.70;;;29.00;76.20;;;;;;5072015;28;20412;-84
2022/07/20 08:18:03;;;;;;;2.50;1.67;;;29.20;75.40;;;;;;5072507;28;20441;-84
2022/07/20 08:20:29;;;;;;;2.73;1.93;;;29.30;75.00;;;;;;5071492;28;20513;-84
2022/07/20 08:22:54;;;;;;;2.30;1.73;;;29.40;74.80;;;;;;5072247;28;20509;-84
2022/07/20 08:25:21;;;;;;;1.70;1.40;;;29.50;74.30;;;;;;5071275;28;20503;-84
2022/07/20 08:27:47;;;;;;;3.00;2.40;;;29.60;73.50;;;;;;5072765;28;20284;-84
2022/07/20 08:30:13;;;;;;;2.00;1.60;;;29.80;74.20;;;;;;5071608;28;20572;-84
2022/07/20 08:32:40;;;;;;;1.47;1.20;;;29.90;74.50;;;;;;5071186;28;20240;-84
2022/07/20 08:35:06;;;;;;;1.80;1.70;;;30.00;74.30;;;;;;5071074;28;20527;-84
2022/07/20 08:37:31;;;;;;;5.40;3.20;;;30.20;73.60;;;;;;5072564;28;20413;-84
2022/07/20 08:39:57;;;;;;;2.03;1.77;;;30.30;73.30;;;;;;5070967;28;20420;-84
2022/07/20 08:42:23;;;;;;;1.90;1.80;;;30.40;73.40;;;;;;5071178;28;20537;-84
2022/07/20 08:44:49;;;;;;;1.77;1.13;;;30.50;73.40;;;;;;5070885;28;20183;-84
2022/07/20 08:47:15;;;;;;;3.20;2.33;;;30.60;72.70;;;;;;5070551;28;20186;-84
2022/07/20 08:49:49;;;;;;;6.30;2.73;;;30.80;71.90;;;;;;5071136;28;20425;-84
2022/07/20 08:52:16;;;;;;;1.70;1.53;;;30.90;71.50;;;;;;5070807;28;20426;-83
2022/07/20 08:54:42;;;;;;;4.57;2.17;;;31.10;69.90;;;;;;5070498;28;20517;-84
2022/07/20 08:57:11;;;;;;;2.87;1.53;;;31.20;70.10;;;;;;5070623;28;20842;-84
2022/07/20 08:59:37;;;;;;;1.97;1.70;;;31.30;70.40;;;;;;5070587;28;20202;-83
2022/07/20 09:02:07;;;;;;;1.70;1.60;;;31.40;69.60;;;;;;5070953;28;20890;-84
2022/07/20 09:04:47;;;;;;;5.00;2.10;;;31.60;69.30;;;;;;5072048;28;20575;-83
2022/07/20 09:07:13;;;;;;;4.20;2.03;;;31.70;68.60;;;;;;5071081;28;20424;-83
2022/07/20 09:09:38;;;;;;;3.00;2.10;;;31.80;67.90;;;;;;5069918;28;20437;-84
2022/07/20 09:12:04;;;;;;;3.17;2.13;;;31.90;68.50;;;;;;5070698;28;20253;-84
2022/07/20 09:14:40;;;;;;;1.37;1.27;;;32.10;69.10;;;;;;5071501;28;20203;-84
2022/07/20 09:17:22;;;;;;;1.77;1.60;;;32.20;68.90;;;;;;5070244;28;20175;-84
2022/07/20 09:20:08;;;;;;;1.47;1.27;;;32.40;67.80;;;;;;5070331;28;20413;-84
2022/07/20 09:22:36;;;;;;;5.03;2.67;;;32.50;66.70;;;;;;5070098;28;20474;-84
2022/07/20 09:25:14;;;;;;;2.20;1.37;;;32.60;66.90;;;;;;5071705;28;20693;-84
2022/07/20 09:27:41;;;;;;;2.40;1.50;;;32.70;65.80;;;;;;5069791;28;20437;-84
2022/07/20 09:30:13;;;;;;;3.27;1.97;;;32.90;64.30;;;;;;5069934;28;20493;-84
2022/07/20 09:33:00;;;;;;;3.37;2.17;;;33.00;65.30;;;;;;5069928;28;20483;-83
2022/07/20 09:35:33;;;;;;;8.63;1.80;;;33.10;65.00;;;;;;5069767;28;20445;-83
2022/07/20 09:38:01;;;;;;;2.13;1.47;;;33.20;64.90;;;;;;5069570;28;20518;-84
2022/07/20 09:40:27;;;;;;;5.20;1.93;;;33.30;64.70;;;;;;5069075;28;20519;-84
2022/07/20 09:42:53;;;;;;;1.37;1.30;;;33.40;64.40;;;;;;5069822;28;20934;-82
2022/07/20 09:45:25;;;;;;;1.43;1.30;;;33.40;64.70;;;;;;5069631;28;20424;-81
2022/07/20 09:48:00;;;;;;;1.80;1.33;;;33.50;64.80;;;;;;5069538;28;20202;-84
2022/07/20 09:50:29;;;;;;;2.70;2.00;;;33.70;63.60;;;;;;5056419;28;20417;-84
2022/07/20 09:52:55;;;;;;;1.77;1.33;;;33.80;62.90;;;;;;5069916;28;20413;-84
2022/07/20 09:55:21;;;;;;;1.30;1.20;;;33.90;62.50;;;;;;5069595;28;20456;-84
2022/07/20 09:57:49;;;;;;;1.30;1.20;;;34.00;62.80;;;;;;5069721;28;20195;-84
2022/07/20 10:00:15;;;;;;;1.50;1.30;;;34.10;62.50;;;;;;5070691;28;20401;-84
2022/07/20 10:02:41;;;;;;;1.60;1.13;;;34.10;62.70;;;;;;5069435;28;20730;-84
2022/07/20 10:05:08;;;;;;;1.30;1.20;;;34.10;63.00;;;;;;5069731;28;20179;-84
2022/07/20 10:07:33;;;;;;;1.70;1.60;;;34.20;63.30;;;;;;5069472;28;20197;-85
2022/07/20 10:10:00;;;;;;;2.13;1.97;;;34.30;61.90;;;;;;5069483;28;20504;-84
2022/07/20 10:12:26;;;;;;;1.10;1.00;;;34.40;61.20;;;;;;5069820;28;20297;-84
2022/07/20 10:14:54;;;;;;;1.43;1.33;;;34.50;61.70;;;;;;5069493;28;20453;-84
2022/07/20 10:17:20;;;;;;;22.83;2.40;;;34.60;61.90;;;;;;5069088;28;20871;-84
2022/07/20 10:19:47;;;;;;;12.87;2.30;;;34.70;61.50;;;;;;5069676;28;20452;-84
2022/07/20 10:22:13;;;;;;;3.40;1.70;;;34.80;62.00;;;;;;5069544;28;20332;-84
2022/07/20 10:24:42;;;;;;;1.83;1.33;;;34.90;60.20;;;;;;5069087;28;20575;-84
2022/07/20 10:27:08;;;;;;;1.67;1.63;;;35.00;59.90;;;;;;5069171;28;20420;-84
2022/07/20 10:29:39;;;;;;;4.30;2.23;;;35.10;60.50;;;;;;5069149;28;20858;-83
2022/07/20 10:32:16;;;;;;;3.70;2.03;;;35.20;60.90;;;;;;5068928;28;20264;-82
2022/07/20 10:34:46;;;;;;;1.13;1.03;;;35.30;61.40;;;;;;5069104;28;20817;-81
2022/07/20 10:37:23;;;;;;;2.33;1.63;;;35.30;60.90;;;;;;5069031;28;20496;-82
2022/07/20 10:39:51;;;;;;;2.60;2.33;;;35.40;60.80;;;;;;5069248;28;20439;-82
2022/07/20 10:42:34;;;;;;;4.37;2.23;;;35.50;60.60;;;;;;5069183;28;20999;-82
2022/07/20 10:45:24;;;;;;;1.60;1.50;;;35.60;60.30;;;;;;5066727;28;20421;-82
2022/07/20 10:47:52;;;;;;;1.60;1.53;;;35.60;59.20;;;;;;5048699;28;20438;-82
2022/07/20 10:50:22;;;;;;;1.33;1.23;;;35.60;59.90;;;;;;5068590;28;20413;-82
2022/07/20 10:52:52;;;;;;;1.67;1.60;;;35.70;59.90;;;;;;5069022;28;20409;-82
2022/07/20 10:55:33;;;;;;;3.33;1.70;;;35.80;58.90;;;;;;5068755;28;20465;-82
2022/07/20 10:57:59;;;;;;;1.47;0.90;;;35.80;58.70;;;;;;5068707;28;20532;-82
2022/07/20 11:00:50;;;;;;;2.50;1.73;;;35.80;57.70;;;;;;5068964;28;20462;-82
2022/07/20 11:03:17;;;;;;;1.63;1.53;;;35.90;57.50;;;;;;5069186;28;20490;-82
2022/07/20 11:05:44;;;;;;;1.30;1.20;;;36.00;58.00;;;;;;5068800;28;20405;-82
2022/07/20 11:08:11;;;;;;;1.10;1.00;;;36.10;57.90;;;;;;5068943;28;20459;-82
2022/07/20 11:10:39;;;;;;;2.53;1.50;;;36.20;58.20;;;;;;5068919;28;20406;-82
2022/07/20 11:13:11;;;;;;;2.37;1.63;;;36.30;58.20;;;;;;5069664;28;20414;-81
2022/07/20 11:16:04;;;;;;;10.20;3.37;;;36.30;57.60;;;;;;5068629;28;20409;-82
2022/07/20 11:18:31;;;;;;;1.47;1.30;;;36.30;57.30;;;;;;5067737;28;20454;-82
2022/07/20 11:21:03;;;;;;;1.60;1.50;;;36.40;58.20;;;;;;5068865;28;20504;-82
2022/07/20 11:23:49;;;;;;;2.23;1.40;;;36.50;58.20;;;;;;5068417;28;20443;-82
2022/07/20 11:26:18;;;;;;;3.13;2.23;;;36.50;57.80;;;;;;5069362;28;20413;-82
2022/07/20 11:28:55;;;;;;;2.03;1.87;;;36.60;56.60;;;;;;5068326;28;20469;-82
2022/07/20 11:31:28;;;;;;;1.17;1.07;;;36.50;56.50;;;;;;5069584;28;20524;-82
2022/07/20 11:33:56;;;;;;;1.23;1.13;;;36.50;57.20;;;;;;5072368;28;20457;-81
2022/07/20 11:36:26;;;;;;;2.03;1.93;;;36.60;56.80;;;;;;5072403;28;20424;-82
2022/07/20 11:38:54;;;;;;;1.50;1.40;;;36.70;56.70;;;;;;5072720;28;20468;-84
2022/07/20 11:41:30;;;;;;;1.50;1.40;;;36.80;57.40;;;;;;5072381;28;20406;-82
2022/07/20 11:43:57;;;;;;;38.87;2.13;;;36.90;56.40;;;;;;5073197;28;20763;-83
2022/07/20 11:46:26;;;;;;;1.90;1.80;;;37.10;54.90;;;;;;5071992;28;20413;-81
2022/07/20 11:48:53;;;;;;;1.30;1.10;;;37.30;54.60;;;;;;5072051;28;21016;-82
2022/07/20 11:51:18;;;;;;;1.93;1.60;;;37.40;55.20;;;;;;5073011;28;20950;-82
2022/07/20 11:53:44;;;;;;;1.40;1.20;;;37.40;56.30;;;;;;5071976;28;20457;-82
2022/07/20 11:56:13;;;;;;;1.97;1.87;;;37.40;56.60;;;;;;5071865;28;20387;-82
2022/07/20 11:58:40;;;;;;;2.03;1.90;;;37.50;56.00;;;;;;5071262;28;20276;-82
2022/07/20 12:01:08;;;;;;;3.50;1.60;;;37.60;56.60;;;;;;5071960;28;20928;-84
2022/07/20 12:03:42;;;;;;;2.63;2.00;;;37.60;55.40;;;;;;5071770;28;20782;-82
2022/07/20 12:06:13;;;;;;;1.83;1.40;;;37.70;55.30;;;;;;5068520;28;20436;-81
2022/07/20 12:08:39;;;;;;;2.50;2.20;;;37.80;55.40;;;;;;5055915;28;20430;-85
2022/07/20 12:11:06;;;;;;;1.57;1.33;;;37.90;53.90;;;;;;5055935;28;20422;-82
2022/07/20 12:13:47;;;;;;;1.63;1.53;;;37.90;55.10;;;;;;5070092;28;20457;-85
2022/07/20 12:16:13;;;;;;;2.23;2.03;;;38.00;55.10;;;;;;5068314;28;20418;-82
2022/07/20 12:18:46;;;;;;;3.10;1.93;;;38.10;55.90;;;;;;5067216;28;20826;-82
2022/07/20 12:21:15;;;;;;;1.40;1.30;;;38.20;55.70;;;;;;5064594;28;20786;-82
2022/07/20 12:23:43;;;;;;;3.43;2.10;;;38.20;54.20;;;;;;5061363;28;20473;-82
2022/07/20 12:26:21;;;;;;;1.87;1.57;;;38.20;55.40;;;;;;5059404;28;20512;-84
2022/07/20 12:28:47;;;;;;;1.37;1.27;;;38.20;55.70;;;;;;5058612;28;20479;-82
2022/07/20 12:31:19;;;;;;;1.90;1.80;;;38.30;55.70;;;;;;5060653;28;20517;-82
2022/07/20 12:34:06;;;;;;;2.40;1.70;;;38.30;56.10;;;;;;5069655;28;20214;-82
2022/07/20 12:36:46;;;;;;;1.20;1.10;;;38.30;55.10;;;;;;5059610;28;20490;-85
2022/07/20 12:39:15;;;;;;;2.10;1.33;;;38.40;55.10;;;;;;5069513;28;20965;-83
2022/07/20 12:41:41;;;;;;;2.43;1.43;;;38.40;55.40;;;;;;5069826;28;20420;-82
2022/07/20 12:44:27;;;;;;;1.97;1.77;;;38.50;54.50;;;;;;5075524;28;20420;-82
2022/07/20 12:46:55;;;;;;;1.20;1.13;;;38.60;55.50;;;;;;5069603;28;20458;-82
2022/07/20 12:49:22;;;;;;;2.40;1.47;;;38.70;54.10;;;;;;5063420;28;20442;-81